Weather History for Shishmaref, AK

Change the Weather History Date:

Saturday, May 12, 2012

  Actual Average Record
Temperature  
Mean Temperature 22 °F -  
Max Temperature 28 °F 30 °F 37 °F (1997)
Min Temperature 17 °F 21 °F 10 °F (2006)
Degree Days  
Heating Degree Days 42    
Moisture  
Dew Point 20 °F    
Average Humidity 93    
Maximum Humidity 100    
Minimum Humidity 86    
Precipitation  
Precipitation 0.00 in - - ()
Sea Level Pressure  
Sea Level Pressure 29.73 in    
Wind  
Wind Speed 5 mph (WSW)    
Max Wind Speed 8 mph    
Max Gust Speed -    
Visibility 10 miles    
Events      
Averages and records for this station are not official NWS values.
T = Trace of Precipitation, MM = Missing Value Source: NWS Daily Summary

Daily Weather History Graph

Daily Weather History Graph

Search for Another Location

Airport:

Trip Planner

Search our weather history database for the weather conditions in past years. The results will help you decide how hot, cold, wet, or windy it might be!

Date:

Astronomy

May. 12, 2012 Rise Set
Actual Time 5:31 AM AKDT 12:32 AM AKDT
Civil Twilight 3:33 AM AKDT 2:28 AM AKDT
Nautical Twilight Sun does not rise Sun does not rise
Astronomical Twilight Sun does not rise Sun does not rise
Moon 4:39 AM AKDT (5/12) 1:46 PM AKDT (5/12)
Length of Visible Light 22h 55m
Length of Day
19h 01m
Waning Gibbous, 51% of the Moon is Illuminated
May 12
Waning Gibbous
May 12
Last Quarter
May 20
New
May 28
First Quarter
Jun 4
Full

Hourly Weather History & Observations

Time (AKDT) Temp. Windchill Dew Point Humidity Pressure Visibility Wind Dir Wind Speed Gust Speed Precip Events Conditions
12:16 AM 19.4 °F 14.3 °F 17.6 °F 93% 29.59 in 5.0 mi West 3.5 mph - N/A   Overcast
12:36 AM 19.4 °F 14.3 °F 17.6 °F 93% 29.60 in 9.0 mi West 3.5 mph - N/A   Overcast
12:56 AM 19.4 °F 12.8 °F 17.6 °F 93% 29.61 in 10.0 mi WSW 4.6 mph - N/A   Overcast
1:16 AM 19.4 °F 12.8 °F 17.6 °F 93% 29.61 in 10.0 mi WSW 4.6 mph - N/A   Overcast
1:36 AM 19.4 °F 12.8 °F 17.6 °F 93% 29.61 in 10.0 mi WSW 4.6 mph - N/A   Overcast
1:56 AM 19.4 °F 11.5 °F 17.6 °F 93% 29.62 in 10.0 mi SW 5.8 mph - N/A   Overcast
2:16 AM 17.6 °F 9.3 °F 17.6 °F 100% 29.62 in 10.0 mi WSW 5.8 mph - N/A   Overcast
2:36 AM 19.4 °F 12.8 °F 17.6 °F 93% 29.62 in 10.0 mi WSW 4.6 mph - N/A   Overcast
2:56 AM 19.4 °F 11.5 °F 17.6 °F 93% 29.62 in 10.0 mi WSW 5.8 mph - N/A   Overcast
3:16 AM 17.6 °F 10.7 °F 17.6 °F 100% 29.63 in 10.0 mi WSW 4.6 mph - N/A   Overcast
3:36 AM 17.6 °F 10.7 °F 17.6 °F 100% 29.64 in 10.0 mi SW 4.6 mph - N/A   Overcast
3:56 AM 17.6 °F 9.3 °F 17.6 °F 100% 29.64 in 10.0 mi SW 5.8 mph - N/A   Overcast
4:16 AM 17.6 °F 9.3 °F 17.6 °F 100% 29.64 in 10.0 mi SW 5.8 mph - N/A   Overcast
4:36 AM 17.6 °F 9.3 °F 17.6 °F 100% 29.64 in 10.0 mi WSW 5.8 mph - N/A   Overcast
4:56 AM 19.4 °F 12.8 °F 17.6 °F 93% 29.65 in 10.0 mi SW 4.6 mph - N/A   Overcast
5:16 AM 17.6 °F 9.3 °F 17.6 °F 100% 29.65 in 10.0 mi WSW 5.8 mph - N/A   Overcast
5:36 AM 17.6 °F 10.7 °F 17.6 °F 100% 29.65 in 10.0 mi WSW 4.6 mph - N/A   Overcast
5:56 AM 17.6 °F 10.7 °F 17.6 °F 100% 29.66 in 10.0 mi WSW 4.6 mph - N/A   Overcast
6:16 AM 17.6 °F 12.3 °F 17.6 °F 100% 29.66 in 10.0 mi WSW 3.5 mph - N/A   Overcast
6:36 AM 17.6 °F 12.3 °F 15.8 °F 93% 29.67 in 10.0 mi WSW 3.5 mph - N/A   Overcast
6:56 AM 17.6 °F 12.3 °F 17.6 °F 100% 29.67 in 10.0 mi WSW 3.5 mph - N/A   Overcast
7:16 AM 17.6 °F 12.3 °F 17.6 °F 100% 29.68 in 10.0 mi WSW 3.5 mph - N/A   Overcast
7:36 AM 17.6 °F 12.3 °F 17.6 °F 100% 29.68 in 10.0 mi WSW 3.5 mph - N/A   Overcast
7:56 AM 17.6 °F 10.7 °F 15.8 °F 93% 29.69 in 10.0 mi WSW 4.6 mph - N/A   Overcast
8:16 AM 17.6 °F 12.3 °F 15.8 °F 93% 29.70 in 10.0 mi WSW 3.5 mph - N/A   Overcast
8:36 AM 17.6 °F 12.3 °F 15.8 °F 93% 29.70 in 10.0 mi WSW 3.5 mph - N/A   Overcast
8:56 AM 17.6 °F 10.7 °F 17.6 °F 100% 29.70 in 10.0 mi WSW 4.6 mph - N/A   Overcast
9:16 AM 17.6 °F 10.7 °F 15.8 °F 93% 29.72 in 10.0 mi SSW 4.6 mph - N/A   Overcast
9:36 AM 17.6 °F 9.3 °F 15.8 °F 93% 29.72 in 10.0 mi SW 5.8 mph - N/A   Overcast
9:56 AM 17.6 °F 8.2 °F 15.8 °F 93% 29.72 in 10.0 mi SW 6.9 mph - N/A   Overcast
10:16 AM 17.6 °F 8.2 °F 15.8 °F 93% 29.73 in 10.0 mi WSW 6.9 mph - N/A   Overcast
10:36 AM 17.6 °F 8.2 °F 15.8 °F 93% 29.72 in 10.0 mi WSW 6.9 mph - N/A   Overcast
10:56 AM 17.6 °F 8.2 °F 15.8 °F 93% 29.73 in 10.0 mi WSW 6.9 mph - N/A   Overcast
11:16 AM 17.6 °F 8.2 °F 15.8 °F 93% 29.73 in 10.0 mi WSW 6.9 mph - N/A   Mostly Cloudy
11:36 AM 17.6 °F 8.2 °F 17.6 °F 100% 29.74 in 7.0 mi WSW 6.9 mph - N/A   Mostly Cloudy
11:56 AM 17.6 °F 7.3 °F 17.6 °F 100% 29.74 in 1.8 mi WSW 8.1 mph - N/A   Overcast
12:16 PM 19.4 °F 9.5 °F 17.6 °F 93% 29.75 in 8.0 mi WSW 8.1 mph - N/A   Overcast
12:36 PM 19.4 °F 10.4 °F 17.6 °F 93% 29.75 in 10.0 mi West 6.9 mph - N/A   Overcast
12:56 PM 19.4 °F 11.5 °F 19.4 °F 100% 29.75 in 10.0 mi West 5.8 mph - N/A   Overcast
1:16 PM 21.2 °F 12.6 °F 19.4 °F 93% 29.75 in 10.0 mi West 6.9 mph - N/A   Overcast
1:36 PM 21.2 °F 13.6 °F 19.4 °F 93% 29.76 in 10.0 mi West 5.8 mph - N/A   Mostly Cloudy
1:56 PM 21.2 °F 12.6 °F 19.4 °F 93% 29.76 in 10.0 mi West 6.9 mph - N/A   Overcast
2:16 PM 21.2 °F 12.6 °F 19.4 °F 93% 29.76 in 10.0 mi West 6.9 mph - N/A   Overcast
2:36 PM 23.0 °F 15.8 °F 19.4 °F 86% 29.77 in 10.0 mi West 5.8 mph - N/A   Scattered Clouds
2:56 PM 23.0 °F 15.8 °F 19.4 °F 86% 29.77 in 10.0 mi West 5.8 mph - N/A   Scattered Clouds
3:16 PM 23.0 °F 14.7 °F 19.4 °F 86% 29.78 in 10.0 mi West 6.9 mph - N/A   Overcast
3:36 PM 24.8 °F 16.9 °F 21.2 °F 86% 29.77 in 10.0 mi West 6.9 mph - N/A   Overcast
3:56 PM 24.8 °F 17.9 °F 21.2 °F 86% 29.78 in 10.0 mi West 5.8 mph - N/A   Overcast
4:16 PM 24.8 °F 17.9 °F 21.2 °F 86% 29.78 in 10.0 mi WNW 5.8 mph - N/A   Overcast
4:36 PM 24.8 °F 17.9 °F 21.2 °F 86% 29.78 in 10.0 mi West 5.8 mph - N/A   Overcast
4:56 PM 24.8 °F 19.1 °F 21.2 °F 86% 29.79 in 10.0 mi WNW 4.6 mph - N/A   Overcast
5:16 PM 26.6 °F 20.0 °F 23.0 °F 86% 29.79 in 10.0 mi WNW 5.8 mph - N/A   Overcast
5:36 PM 26.6 °F 20.0 °F 23.0 °F 86% 29.79 in 10.0 mi WNW 5.8 mph - N/A   Overcast
5:56 PM 26.6 °F 20.0 °F 23.0 °F 86% 29.79 in 10.0 mi West 5.8 mph - N/A   Overcast
6:16 PM 26.6 °F 20.0 °F 23.0 °F 86% 29.80 in 10.0 mi West 5.8 mph - N/A   Overcast
6:36 PM 26.6 °F 19.1 °F 24.8 °F 93% 29.80 in 10.0 mi West 6.9 mph - N/A   Overcast
6:56 PM 26.6 °F 20.0 °F 24.8 °F 93% 29.81 in 10.0 mi West 5.8 mph - N/A   Overcast
7:16 PM 26.6 °F 20.0 °F 24.8 °F 93% 29.81 in 10.0 mi West 5.8 mph - N/A   Overcast
7:36 PM 26.6 °F 19.1 °F 24.8 °F 93% 29.81 in 10.0 mi West 6.9 mph - N/A   Overcast
7:56 PM 26.6 °F 19.1 °F 24.8 °F 93% 29.82 in 10.0 mi WNW 6.9 mph - N/A   Overcast
8:16 PM 28.4 °F 22.2 °F 24.8 °F 86% 29.82 in 10.0 mi WNW 5.8 mph - N/A   Overcast
8:36 PM 28.4 °F 22.2 °F 24.8 °F 86% 29.83 in 10.0 mi WNW 5.8 mph - N/A   Overcast
8:56 PM 28.4 °F 21.2 °F 24.8 °F 86% 29.83 in 10.0 mi WNW 6.9 mph - N/A   Overcast
9:16 PM 28.4 °F 22.2 °F 24.8 °F 86% 29.83 in 10.0 mi West 5.8 mph - N/A   Overcast
9:36 PM 28.4 °F 22.2 °F 24.8 °F 86% 29.83 in 10.0 mi West 5.8 mph - N/A   Overcast
9:56 PM 28.4 °F 21.2 °F 24.8 °F 86% 29.84 in 10.0 mi West 6.9 mph - N/A   Overcast
10:16 PM 28.4 °F 23.3 °F 24.8 °F 86% 29.84 in 10.0 mi West 4.6 mph - N/A   Overcast
10:36 PM 28.4 °F 23.3 °F 24.8 °F 86% 29.85 in 10.0 mi West 4.6 mph - N/A   Overcast
10:56 PM 26.6 °F 20.0 °F 26.6 °F 100% 29.85 in 10.0 mi West 5.8 mph - N/A   Overcast
11:16 PM 26.6 °F 20.0 °F 26.6 °F 100% 29.86 in 10.0 mi West 5.8 mph - N/A   Overcast
11:36 PM 26.6 °F 21.2 °F 26.6 °F 100% 29.87 in 10.0 mi West 4.6 mph - N/A   Overcast
11:56 PM 26.6 °F 21.2 °F 24.8 °F 93% 29.87 in 10.0 mi West 4.6 mph - N/A   Overcast